createdAt,value
2023-04-03T00:01:22.560Z,-6.63
2023-04-03T00:03:50.096Z,-6.90
2023-04-03T00:06:16.941Z,-6.91
2023-04-03T00:08:43.662Z,-6.71
2023-04-03T00:11:12.352Z,-6.71
2023-04-03T00:13:40.382Z,-6.93
2023-04-03T00:16:08.558Z,-7.06
2023-04-03T00:18:35.783Z,-6.87
2023-04-03T00:21:02.475Z,-6.84
2023-04-03T00:23:29.501Z,-7.01
2023-04-03T00:25:56.614Z,-7.29
2023-04-03T00:28:23.606Z,-7.53
2023-04-03T00:30:51.216Z,-7.57
2023-04-03T00:33:18.112Z,-7.46
2023-04-03T00:35:46.035Z,-7.32
2023-04-03T00:38:12.721Z,-7.32
2023-04-03T00:40:45.406Z,-7.59
2023-04-03T00:43:15.859Z,-7.70
2023-04-03T00:45:45.013Z,-7.65
2023-04-03T00:48:19.563Z,-7.83
2023-04-03T00:50:47.162Z,-7.89
2023-04-03T00:53:20.304Z,-7.91
2023-04-03T00:55:48.539Z,-7.82
2023-04-03T00:58:18.865Z,-8.15
2023-04-03T01:00:54.742Z,-8.21
2023-04-03T01:03:21.487Z,-8.08
2023-04-03T01:05:48.448Z,-7.83
2023-04-03T01:08:16.666Z,-7.68
2023-04-03T01:10:43.782Z,-7.68
2023-04-03T01:13:31.087Z,-7.69
2023-04-03T01:15:58.236Z,-7.88
2023-04-03T01:18:27.198Z,-8.06
2023-04-03T01:20:56.694Z,-8.12
2023-04-03T01:23:38.157Z,-8.31
2023-04-03T01:26:05.606Z,-8.30
2023-04-03T01:28:35.494Z,-8.37
2023-04-03T01:31:23.354Z,-8.49
2023-04-03T01:33:50.386Z,-8.64
2023-04-03T01:36:25.243Z,-8.50
2023-04-03T01:38:53.332Z,-8.30
2023-04-03T01:41:21.832Z,-8.08
2023-04-03T01:43:49.876Z,-7.99
2023-04-03T01:46:21.179Z,-8.10
2023-04-03T01:48:48.147Z,-8.25
2023-04-03T01:51:15.874Z,-8.40
2023-04-03T01:53:42.481Z,-8.20
2023-04-03T01:56:10.851Z,-8.13
2023-04-03T01:58:37.613Z,-8.19
2023-04-03T02:01:06.125Z,-8.46
2023-04-03T02:03:33.782Z,-8.55
2023-04-03T02:06:01.355Z,-8.35
2023-04-03T02:08:27.979Z,-8.23
2023-04-03T02:10:54.749Z,-8.22
2023-04-03T02:13:21.454Z,-8.47
2023-04-03T02:15:48.729Z,-8.54
2023-04-03T02:18:15.945Z,-8.59
2023-04-03T02:20:42.984Z,-8.50
2023-04-03T02:23:09.862Z,-8.42
2023-04-03T02:25:38.582Z,-8.51
2023-04-03T02:28:06.037Z,-8.45
2023-04-03T02:30:33.003Z,-8.30
2023-04-03T02:32:59.670Z,-8.41
2023-04-03T02:35:26.422Z,-8.15
2023-04-03T02:37:53.147Z,-7.92
2023-04-03T02:40:20.085Z,-7.73
2023-04-03T02:42:46.792Z,-7.51
2023-04-03T02:45:14.824Z,-7.49
2023-04-03T02:47:41.657Z,-7.54
2023-04-03T02:50:08.607Z,-7.91
2023-04-03T02:52:36.396Z,-7.84
2023-04-03T02:55:03.460Z,-7.84
2023-04-03T02:57:30.508Z,-7.69
2023-04-03T02:59:57.272Z,-7.75
2023-04-03T03:02:24.396Z,-7.71
2023-04-03T03:04:51.163Z,-7.88
2023-04-03T03:07:19.171Z,-8.13
2023-04-03T03:09:47.481Z,-8.15
2023-04-03T03:12:15.700Z,-7.85
2023-04-03T03:14:43.851Z,-8.15
2023-04-03T03:17:10.491Z,-8.41
2023-04-03T03:19:38.562Z,-8.59
2023-04-03T03:22:05.290Z,-8.50
2023-04-03T03:24:32.046Z,-8.07
2023-04-03T03:26:58.710Z,-8.05
2023-04-03T03:29:25.553Z,-8.41
2023-04-03T03:31:53.517Z,-8.69
2023-04-03T03:34:20.325Z,-8.63
2023-04-03T03:36:48.111Z,-8.54
2023-04-03T03:39:16.102Z,-8.59
2023-04-03T03:41:43.914Z,-8.73
2023-04-03T03:44:10.719Z,-8.62
2023-04-03T03:46:37.428Z,-8.62
2023-04-03T03:49:04.215Z,-8.37
2023-04-03T03:51:31.032Z,-8.15
2023-04-03T03:53:57.787Z,-8.20
2023-04-03T03:56:24.505Z,-8.27
2023-04-03T03:58:51.288Z,-8.14
2023-04-03T04:01:19.430Z,-8.40
2023-04-03T04:03:46.312Z,-8.50
2023-04-03T04:06:13.208Z,-8.48
2023-04-03T04:08:39.886Z,-8.46
2023-04-03T04:11:06.831Z,-8.38
2023-04-03T04:13:33.492Z,-8.56
2023-04-03T04:16:00.440Z,-8.60
2023-04-03T04:18:27.071Z,-8.57
2023-04-03T04:20:53.674Z,-8.54
2023-04-03T04:23:21.871Z,-8.28
2023-04-03T04:25:49.752Z,-8.45
2023-04-03T04:28:17.171Z,-8.64
2023-04-03T04:30:44.046Z,-8.77
2023-04-03T04:33:11.106Z,-8.85
2023-04-03T04:35:39.609Z,-8.68
2023-04-03T04:38:06.647Z,-8.40
2023-04-03T04:40:33.350Z,-8.12
2023-04-03T04:43:00.020Z,-8.09
2023-04-03T04:45:26.676Z,-8.53
2023-04-03T04:47:55.868Z,-8.67
2023-04-03T04:50:22.484Z,-8.47
2023-04-03T04:52:49.138Z,-8.47
2023-04-03T04:55:17.332Z,-8.68
2023-04-03T04:57:43.930Z,-8.36
2023-04-03T05:00:12.264Z,-8.18
2023-04-03T05:02:39.465Z,-8.43
2023-04-03T05:07:39.610Z,-8.62
2023-04-03T05:10:06.971Z,-8.64
2023-04-03T05:12:34.751Z,-8.59
2023-04-03T05:15:01.389Z,-8.53
2023-04-03T05:17:28.092Z,-8.23
2023-04-03T05:19:54.701Z,-7.97
2023-04-03T05:22:21.561Z,-7.73
2023-04-03T05:24:48.241Z,-7.79
2023-04-03T05:27:14.860Z,-7.53
2023-04-03T05:29:45.230Z,-7.53
2023-04-03T05:32:12.323Z,-7.68
2023-04-03T05:34:39.269Z,-7.44
2023-04-03T05:37:06.443Z,-7.21
2023-04-03T05:39:35.381Z,-7.35
2023-04-03T05:42:02.046Z,-7.31
2023-04-03T05:44:28.672Z,-7.00
2023-04-03T05:46:55.608Z,-6.88
2023-04-03T05:49:22.263Z,-6.71
2023-04-03T05:51:48.966Z,-6.34
2023-04-03T05:54:24.144Z,-6.10
2023-04-03T05:56:51.487Z,-6.06
2023-04-03T05:59:19.295Z,-5.92
2023-04-03T06:01:46.778Z,-5.78
2023-04-03T06:04:14.660Z,-5.68
2023-04-03T06:06:58.283Z,-5.49
2023-04-03T06:09:29.076Z,-5.37
2023-04-03T06:11:55.825Z,-5.24
2023-04-03T06:14:23.815Z,-5.10
2023-04-03T06:16:50.626Z,-4.95
2023-04-03T06:19:17.373Z,-4.87
2023-04-03T06:21:44.040Z,-4.75
2023-04-03T06:24:13.475Z,-4.62
2023-04-03T06:26:40.198Z,-4.50
2023-04-03T06:29:06.825Z,-4.39
2023-04-03T06:31:33.919Z,-4.32
2023-04-03T06:34:00.676Z,-4.23
2023-04-03T06:36:27.338Z,-4.11
2023-04-03T06:38:53.933Z,-4.04
2023-04-03T06:41:22.342Z,-4.02
2023-04-03T06:43:50.230Z,-3.98
2023-04-03T06:46:19.709Z,-3.98
2023-04-03T06:48:48.209Z,-3.96
2023-04-03T06:51:20.934Z,-3.89
2023-04-03T06:53:49.086Z,-3.69
2023-04-03T06:56:16.565Z,-3.57
2023-04-03T06:58:44.379Z,-3.47
2023-04-03T07:01:13.120Z,-3.34
2023-04-03T07:03:41.097Z,-3.24
2023-04-03T07:06:10.756Z,-3.14
2023-04-03T07:08:37.402Z,-3.04
2023-04-03T07:11:07.078Z,-2.91
2023-04-03T07:13:34.216Z,-2.76
2023-04-03T07:16:02.769Z,-2.67
2023-04-03T07:18:29.478Z,-2.58
2023-04-03T07:20:58.118Z,-2.38
2023-04-03T07:23:25.524Z,-2.21
2023-04-03T07:25:54.333Z,-2.09
2023-04-03T07:28:23.610Z,-2.02
2023-04-03T07:31:00.057Z,-1.96
2023-04-03T07:33:27.227Z,-1.93
2023-04-03T07:35:54.019Z,-1.91
2023-04-03T07:38:20.849Z,-1.85
2023-04-03T07:40:52.153Z,-1.79
2023-04-03T07:43:19.199Z,-1.78
2023-04-03T07:45:46.255Z,-1.70
2023-04-03T07:48:14.543Z,-1.53
2023-04-03T07:50:41.971Z,-1.32
2023-04-03T07:53:10.241Z,-1.23
2023-04-03T07:55:43.784Z,-1.10
2023-04-03T07:58:17.862Z,-1.00
2023-04-03T08:00:46.542Z,-0.93
2023-04-03T08:03:13.923Z,-0.87
2023-04-03T08:05:46.963Z,-0.74
2023-04-03T08:08:16.892Z,-0.62
2023-04-03T08:10:44.147Z,-0.64
2023-04-03T08:13:11.272Z,-0.57
2023-04-03T08:15:38.264Z,-0.50
2023-04-03T08:18:05.979Z,-0.51
2023-04-03T08:20:32.605Z,-0.56
2023-04-03T08:22:59.261Z,-0.57
2023-04-03T08:25:27.296Z,-0.52
2023-04-03T08:27:55.225Z,-0.55
2023-04-03T08:30:21.877Z,-0.56
2023-04-03T08:32:48.853Z,-0.53
2023-04-03T08:35:16.091Z,-0.44
2023-04-03T08:37:43.298Z,-0.30
2023-04-03T08:40:17.182Z,-0.22
2023-04-03T08:42:48.291Z,-0.10
2023-04-03T08:45:19.823Z,0.11
2023-04-03T08:48:06.195Z,0.37
2023-04-03T08:50:40.526Z,0.50
2023-04-03T08:53:33.657Z,0.63
2023-04-03T08:56:07.771Z,0.66
2023-04-03T08:58:45.810Z,0.80
2023-04-03T09:01:26.191Z,0.94
2023-04-03T09:03:54.344Z,1.11
2023-04-03T09:06:33.692Z,1.21
2023-04-03T09:09:43.161Z,1.27
2023-04-03T09:12:34.266Z,1.26
2023-04-03T09:15:35.289Z,1.29
2023-04-03T09:18:20.045Z,1.31
2023-04-03T09:20:52.610Z,1.23
2023-04-03T09:23:23.445Z,1.43
2023-04-03T09:25:52.199Z,1.59
2023-04-03T09:28:18.795Z,1.61
2023-04-03T09:30:46.580Z,1.63
2023-04-03T09:33:14.676Z,1.65
2023-04-03T09:35:48.327Z,1.77
2023-04-03T09:38:23.287Z,1.88
2023-04-03T09:41:04.608Z,1.84
2023-04-03T09:43:34.704Z,1.76
2023-04-03T09:46:21.385Z,1.93
2023-04-03T09:49:08.029Z,2.06
2023-04-03T09:51:37.452Z,2.20
2023-04-03T09:54:27.387Z,2.46
2023-04-03T09:56:57.335Z,2.60
2023-04-03T09:59:24.206Z,2.54
2023-04-03T10:02:00.911Z,2.51
2023-04-03T10:04:39.450Z,2.17
2023-04-03T10:07:34.809Z,2.34
2023-04-03T10:10:26.904Z,2.39
2023-04-03T10:13:20.275Z,2.02
2023-04-03T10:16:10.011Z,1.85
2023-04-03T10:18:48.986Z,2.10
2023-04-03T10:21:27.467Z,2.23
2023-04-03T10:24:21.997Z,2.30
2023-04-03T10:27:14.673Z,2.52
2023-04-03T10:29:53.450Z,2.67
2023-04-03T10:32:39.491Z,2.71
2023-04-03T10:35:35.701Z,2.77
2023-04-03T10:38:32.449Z,2.87
2023-04-03T10:41:09.042Z,3.12
2023-04-03T10:43:46.122Z,3.29
2023-04-03T10:46:17.663Z,3.39
2023-04-03T10:49:14.529Z,3.29
2023-04-03T10:52:07.423Z,3.59
2023-04-03T10:54:41.946Z,3.60
2023-04-03T10:57:13.847Z,3.46
2023-04-03T10:59:56.441Z,3.70
2023-04-03T11:02:26.889Z,3.73
2023-04-03T11:05:02.260Z,3.74
2023-04-03T11:07:34.529Z,3.98
2023-04-03T11:10:20.435Z,4.00
2023-04-03T11:12:59.365Z,3.95
2023-04-03T11:15:33.648Z,4.22
2023-04-03T11:18:18.125Z,4.14
2023-04-03T11:20:55.052Z,4.27
2023-04-03T11:23:46.017Z,4.37
2023-04-03T11:26:27.932Z,4.26
2023-04-03T11:29:01.863Z,4.46
2023-04-03T11:31:41.384Z,4.33
2023-04-03T11:34:28.939Z,4.33
2023-04-03T11:37:01.905Z,4.51
2023-04-03T11:39:35.539Z,4.28
2023-04-03T11:42:19.119Z,4.23
2023-04-03T11:44:47.262Z,4.34
2023-04-03T11:48:20.888Z,4.37
2023-04-03T11:50:54.015Z,4.58
2023-04-03T11:53:33.665Z,4.48
2023-04-03T11:56:24.440Z,4.63
2023-04-03T11:59:05.867Z,4.54
2023-04-03T12:02:29.904Z,4.54
2023-04-03T12:05:29.414Z,4.44
2023-04-03T12:08:33.429Z,4.23
2023-04-03T12:11:12.384Z,4.44
2023-04-03T12:13:49.933Z,4.32
2023-04-03T12:19:15.991Z,4.62
2023-04-03T12:22:04.929Z,4.49
2023-04-03T12:24:34.229Z,4.69
2023-04-03T12:27:01.155Z,4.82
2023-04-03T12:29:30.743Z,4.77
2023-04-03T12:32:18.281Z,4.94
2023-04-03T12:35:06.393Z,4.85
2023-04-03T12:38:05.183Z,5.01
2023-04-03T12:40:45.278Z,5.14
2023-04-03T12:43:15.962Z,4.96
2023-04-03T12:45:54.755Z,5.04
2023-04-03T12:48:27.344Z,4.99
2023-04-03T12:50:56.311Z,4.91
2023-04-03T12:53:27.272Z,4.87
2023-04-03T12:56:32.148Z,5.03
2023-04-03T12:59:21.286Z,4.97
2023-04-03T13:02:01.992Z,5.18
2023-04-03T13:04:31.397Z,5.04
2023-04-03T13:06:58.973Z,5.30
2023-04-03T13:09:31.232Z,5.28
2023-04-03T13:12:01.815Z,5.25
2023-04-03T13:14:31.434Z,5.47
2023-04-03T13:17:17.191Z,5.27
2023-04-03T13:19:46.942Z,5.28
2023-04-03T13:22:25.494Z,5.54
2023-04-03T13:24:54.526Z,5.51
2023-04-03T13:27:22.138Z,5.49
2023-04-03T13:29:55.657Z,5.60
2023-04-03T13:32:27.187Z,5.47
2023-04-03T13:34:54.065Z,5.55
2023-04-03T13:37:24.735Z,5.68
2023-04-03T13:40:17.756Z,5.45
2023-04-03T13:42:44.492Z,5.50
2023-04-03T13:45:20.923Z,5.67
2023-04-03T13:47:51.358Z,5.49
2023-04-03T13:50:22.481Z,5.43
2023-04-03T13:53:14.704Z,5.77
2023-04-03T13:55:57.667Z,5.63
2023-04-03T13:58:32.415Z,5.68
2023-04-03T14:01:09.002Z,5.95
2023-04-03T14:03:54.370Z,5.76
2023-04-03T14:06:21.643Z,5.81
2023-04-03T14:08:50.078Z,6.04
2023-04-03T14:11:21.884Z,5.75
2023-04-03T14:13:48.990Z,5.70
2023-04-03T14:16:25.597Z,5.84
2023-04-03T14:18:54.623Z,5.71
2023-04-03T14:21:22.544Z,5.66
2023-04-03T14:23:51.085Z,5.98
2023-04-03T14:26:24.425Z,6.11
2023-04-03T14:28:55.648Z,6.18
2023-04-03T14:31:24.631Z,6.46
2023-04-03T14:33:52.907Z,6.54
2023-04-03T14:36:26.361Z,6.42
2023-04-03T14:38:54.429Z,6.40
2023-04-03T14:41:24.420Z,6.55
2023-04-03T14:43:52.049Z,6.48
2023-04-03T14:46:43.429Z,6.75
2023-04-03T14:49:23.131Z,6.69
2023-04-03T14:51:49.881Z,6.60
2023-04-03T14:54:22.551Z,6.80
2023-04-03T14:56:50.541Z,6.99
2023-04-03T14:59:18.605Z,6.97
2023-04-03T15:01:45.352Z,7.39
2023-04-03T15:04:20.883Z,7.64
2023-04-03T15:06:49.429Z,7.43
2023-04-03T15:09:25.417Z,8.04
2023-04-03T15:11:53.757Z,7.97
2023-04-03T15:14:35.288Z,7.97
2023-04-03T15:17:09.853Z,8.14
2023-04-03T15:19:39.937Z,7.89
2023-04-03T15:22:08.455Z,8.23
2023-04-03T15:24:35.117Z,8.10
2023-04-03T15:27:02.473Z,7.79
2023-04-03T15:29:29.214Z,8.15
2023-04-03T15:31:56.080Z,7.93
2023-04-03T15:34:23.221Z,7.86
2023-04-03T15:36:53.789Z,8.07
2023-04-03T15:39:21.570Z,7.83
2023-04-03T15:41:49.693Z,7.88
2023-04-03T15:44:18.756Z,8.10
2023-04-03T15:46:47.161Z,8.02
2023-04-03T15:49:14.114Z,8.02
2023-04-03T15:51:40.823Z,8.16
2023-04-03T15:54:07.687Z,7.91
2023-04-03T15:56:34.360Z,7.89
2023-04-03T15:59:01.018Z,8.08
2023-04-03T16:01:28.482Z,7.83
2023-04-03T16:03:57.614Z,7.98
2023-04-03T16:06:25.952Z,7.94
2023-04-03T16:08:52.775Z,7.82
2023-04-03T16:11:19.445Z,8.00
2023-04-03T16:13:46.095Z,7.72
2023-04-03T16:16:12.785Z,7.69
2023-04-03T16:18:39.572Z,7.73
2023-04-03T16:21:09.153Z,7.28
2023-04-03T16:23:36.378Z,7.41
2023-04-03T16:26:04.172Z,7.33
2023-04-03T16:28:30.892Z,6.98
2023-04-03T16:30:59.484Z,6.92
2023-04-03T16:33:26.228Z,6.90
2023-04-03T16:35:53.292Z,6.54
2023-04-03T16:38:20.725Z,6.54
2023-04-03T16:40:47.637Z,6.41
2023-04-03T16:43:14.308Z,6.14
2023-04-03T16:45:41.550Z,6.18
2023-04-03T16:48:10.243Z,6.29
2023-04-03T16:50:38.830Z,5.77
2023-04-03T16:53:09.352Z,5.48
2023-04-03T16:55:37.043Z,5.62
2023-04-03T16:58:03.632Z,5.32
2023-04-03T17:00:35.028Z,4.99
2023-04-03T17:03:02.370Z,5.18
2023-04-03T17:05:29.112Z,4.76
2023-04-03T17:07:56.450Z,4.36
2023-04-03T17:10:23.342Z,4.34
2023-04-03T17:12:50.112Z,4.28
2023-04-03T17:15:16.825Z,3.81
2023-04-03T17:17:43.670Z,3.85
2023-04-03T17:20:11.297Z,3.60
2023-04-03T17:22:37.984Z,3.13
2023-04-03T17:25:05.904Z,3.13
2023-04-03T17:27:32.795Z,3.05
2023-04-03T17:29:59.822Z,2.67
2023-04-03T17:32:26.715Z,2.82
2023-04-03T17:34:53.620Z,2.69
2023-04-03T17:37:20.316Z,2.28
2023-04-03T17:39:47.114Z,2.40
2023-04-03T17:42:15.492Z,2.14
2023-04-03T17:44:42.726Z,1.99
2023-04-03T17:47:10.804Z,2.15
2023-04-03T17:49:37.489Z,1.81
2023-04-03T17:52:05.583Z,1.57
2023-04-03T17:54:32.281Z,1.73
2023-04-03T17:56:58.907Z,1.26
2023-04-03T17:59:27.718Z,1.20
2023-04-03T18:01:55.879Z,1.37
2023-04-03T18:04:23.401Z,1.09
2023-04-03T18:06:52.018Z,0.96
2023-04-03T18:09:22.558Z,1.14
2023-04-03T18:11:50.062Z,0.79
2023-04-03T18:14:23.232Z,0.65
2023-04-03T18:16:50.315Z,0.71
2023-04-03T18:19:23.288Z,0.63
2023-04-03T18:22:00.978Z,0.37
2023-04-03T18:24:28.702Z,0.47
2023-04-03T18:27:01.957Z,0.16
2023-04-03T18:29:33.888Z,-0.09
2023-04-03T18:32:05.526Z,0.07
2023-04-03T18:34:32.812Z,-0.07
2023-04-03T18:37:00.197Z,-0.24
2023-04-03T18:39:27.153Z,-0.10
2023-04-03T18:41:54.400Z,-0.18
2023-04-03T18:44:24.834Z,-0.35
2023-04-03T18:46:53.856Z,-0.25
2023-04-03T18:49:21.093Z,-0.28
2023-04-03T18:51:47.910Z,-0.49
2023-04-03T18:54:15.734Z,-0.42
2023-04-03T18:56:42.399Z,-0.65
2023-04-03T18:59:09.055Z,-0.93
2023-04-03T19:01:38.593Z,-0.78
2023-04-03T19:04:05.802Z,-1.01
2023-04-03T19:06:37.272Z,-1.14
2023-04-03T19:09:06.630Z,-1.05
2023-04-03T19:11:33.858Z,-1.21
2023-04-03T19:16:31.867Z,-1.22
2023-04-03T19:18:59.650Z,-1.41
2023-04-03T19:21:28.470Z,-1.23
2023-04-03T19:23:59.142Z,-1.36
2023-04-03T19:26:28.769Z,-1.30
2023-04-03T19:28:55.644Z,-1.36
2023-04-03T19:31:22.919Z,-1.82
2023-04-03T19:33:50.294Z,-1.79
2023-04-03T19:36:18.425Z,-1.79
2023-04-03T19:38:45.488Z,-2.08
2023-04-03T19:41:22.962Z,-1.88
2023-04-03T19:43:52.732Z,-1.97
2023-04-03T19:46:22.771Z,-2.03
2023-04-03T19:48:49.449Z,-1.84
2023-04-03T19:51:16.700Z,-1.88
2023-04-03T19:53:44.840Z,-1.87
2023-04-03T19:56:11.489Z,-1.85
2023-04-03T19:58:39.478Z,-2.01
2023-04-03T20:01:06.241Z,-2.02
2023-04-03T20:03:34.284Z,-1.86
2023-04-03T20:06:02.760Z,-2.14
2023-04-03T20:08:31.387Z,-2.06
2023-04-03T20:10:58.080Z,-1.97
2023-04-03T20:13:24.718Z,-2.24
2023-04-03T20:15:53.694Z,-2.31
2023-04-03T20:18:21.346Z,-2.38
2023-04-03T20:20:59.636Z,-2.42
2023-04-03T20:23:27.366Z,-2.27
2023-04-03T20:26:08.724Z,-2.39
2023-04-03T20:28:38.004Z,-2.38
2023-04-03T20:31:09.110Z,-2.20
2023-04-03T20:33:37.222Z,-2.41
2023-04-03T20:36:05.598Z,-2.55
2023-04-03T20:38:33.427Z,-2.32
2023-04-03T20:41:00.439Z,-2.54
2023-04-03T20:43:28.718Z,-2.74
2023-04-03T20:45:55.764Z,-2.45
2023-04-03T20:48:22.697Z,-2.47
2023-04-03T20:50:49.503Z,-2.55
2023-04-03T20:53:18.138Z,-2.34
2023-04-03T20:56:01.171Z,-2.66
2023-04-03T20:58:31.786Z,-2.71
2023-04-03T21:00:59.441Z,-2.48
2023-04-03T21:03:29.407Z,-2.47
2023-04-03T21:06:02.419Z,-2.65
2023-04-03T21:09:07.986Z,-2.60
2023-04-03T21:12:12.171Z,-2.74
2023-04-03T21:15:16.458Z,-2.66
2023-04-03T21:18:34.427Z,-2.89
2023-04-03T21:21:04.913Z,-3.07
2023-04-03T21:23:32.902Z,-2.90
2023-04-03T21:26:00.359Z,-2.95
2023-04-03T21:28:27.340Z,-3.05
2023-04-03T21:30:54.201Z,-2.93
2023-04-03T21:33:22.354Z,-2.95
2023-04-03T21:35:50.258Z,-3.38
2023-04-03T21:38:17.267Z,-3.26
2023-04-03T21:40:47.818Z,-3.19
2023-04-03T21:43:15.783Z,-3.33
2023-04-03T21:45:44.069Z,-3.35
2023-04-03T21:48:10.687Z,-3.29
2023-04-03T21:50:39.009Z,-3.54
2023-04-03T21:53:06.131Z,-3.58
2023-04-03T21:55:32.794Z,-3.44
2023-04-03T21:57:59.490Z,-3.50
2023-04-03T22:00:26.246Z,-3.43
2023-04-03T22:03:00.805Z,-3.34
2023-04-03T22:05:36.003Z,-3.44
2023-04-03T22:08:02.683Z,-3.52
2023-04-03T22:10:29.598Z,-3.36
2023-04-03T22:12:56.373Z,-3.52
2023-04-03T22:15:23.160Z,-3.48
2023-04-03T22:17:49.872Z,-3.37
2023-04-03T22:20:16.848Z,-3.72
2023-04-03T22:22:43.585Z,-4.01
2023-04-03T22:25:10.617Z,-3.80
2023-04-03T22:27:37.481Z,-3.81
2023-04-03T22:30:04.426Z,-4.05
2023-04-03T22:32:31.176Z,-3.93
2023-04-03T22:35:00.161Z,-3.72
2023-04-03T22:37:27.548Z,-3.77
2023-04-03T22:39:54.202Z,-3.72
2023-04-03T22:42:21.209Z,-3.64
2023-04-03T22:44:47.872Z,-3.50
2023-04-03T22:47:16.001Z,-3.54
2023-04-03T22:49:42.862Z,-3.44
2023-04-03T22:52:09.513Z,-3.31
2023-04-03T22:54:36.194Z,-3.53
2023-04-03T22:57:03.205Z,-3.62
2023-04-03T22:59:29.942Z,-3.46
2023-04-03T23:01:57.722Z,-3.93
2023-04-03T23:04:24.906Z,-4.50
2023-04-03T23:06:51.709Z,-4.39
2023-04-03T23:09:18.337Z,-4.27
2023-04-03T23:11:44.945Z,-4.54
2023-04-03T23:14:11.589Z,-4.60
2023-04-03T23:16:38.252Z,-4.42
2023-04-03T23:19:04.886Z,-4.56
2023-04-03T23:21:31.505Z,-4.39
2023-04-03T23:23:58.277Z,-4.11
2023-04-03T23:26:25.537Z,-4.06
2023-04-03T23:28:52.199Z,-3.86
2023-04-03T23:31:18.785Z,-3.74
2023-04-03T23:33:46.809Z,-3.68
2023-04-03T23:36:13.583Z,-3.66
2023-04-03T23:38:41.418Z,-3.55
2023-04-03T23:41:08.095Z,-3.43
2023-04-03T23:43:35.595Z,-3.46
2023-04-03T23:46:02.783Z,-3.31
2023-04-03T23:48:29.547Z,-3.18
2023-04-03T23:50:56.351Z,-3.41
2023-04-03T23:53:23.018Z,-3.42
2023-04-03T23:55:50.313Z,-3.20
2023-04-03T23:58:16.967Z,-3.38
